createdAt,value
2022-09-12T00:01:26.261Z,99.90
2022-09-12T00:04:48.370Z,99.90
2022-09-12T00:08:11.741Z,99.90
2022-09-12T00:11:39.725Z,99.90
2022-09-12T00:15:01.693Z,99.90
2022-09-12T00:18:23.687Z,99.90
2022-09-12T00:21:45.658Z,99.90
2022-09-12T00:25:07.949Z,99.90
2022-09-12T00:28:29.911Z,99.90
2022-09-12T00:31:51.988Z,99.90
2022-09-12T00:35:14.021Z,99.90
2022-09-12T00:38:38.610Z,99.90
2022-09-12T00:42:00.642Z,99.90
2022-09-12T00:45:27.370Z,99.90
2022-09-12T00:49:13.108Z,99.90
2022-09-12T00:52:57.504Z,99.90
2022-09-12T00:56:22.038Z,99.90
2022-09-12T00:59:55.638Z,99.90
2022-09-12T01:03:20.345Z,99.90
2022-09-12T01:06:44.144Z,99.90
2022-09-12T01:10:08.490Z,99.90
2022-09-12T01:13:31.433Z,99.90
2022-09-12T01:16:53.431Z,99.90
2022-09-12T01:20:46.691Z,99.90
2022-09-12T01:24:23.847Z,99.90
2022-09-12T01:28:10.020Z,99.90
2022-09-12T01:31:39.959Z,99.90
2022-09-12T01:35:09.696Z,99.90
2022-09-12T01:39:10.134Z,99.90
2022-09-12T01:43:04.380Z,99.90
2022-09-12T01:46:43.041Z,99.90
2022-09-12T01:50:19.180Z,99.90
2022-09-12T01:53:52.537Z,99.90
2022-09-12T01:57:25.742Z,99.90
2022-09-12T02:01:11.312Z,99.90
2022-09-12T02:04:44.627Z,99.90
2022-09-12T02:08:11.987Z,99.90
2022-09-12T02:11:38.689Z,99.90
2022-09-12T02:15:07.363Z,99.90
2022-09-12T02:18:32.946Z,99.90
2022-09-12T02:21:58.381Z,99.90
2022-09-12T02:25:22.190Z,99.90
2022-09-12T02:28:44.418Z,99.90
2022-09-12T02:32:28.332Z,99.90
2022-09-12T02:35:55.449Z,99.90
2022-09-12T02:39:22.211Z,99.90
2022-09-12T02:42:44.711Z,99.90
2022-09-12T02:46:14.761Z,99.90
2022-09-12T02:49:36.890Z,99.90
2022-09-12T02:53:04.584Z,99.90
2022-09-12T02:56:30.930Z,99.90
2022-09-12T02:59:58.865Z,99.90
2022-09-12T03:03:26.704Z,99.90
2022-09-12T03:07:13.278Z,99.90
2022-09-12T03:10:44.263Z,99.90
2022-09-12T03:14:26.936Z,99.90
2022-09-12T03:18:03.891Z,99.90
2022-09-12T03:21:25.762Z,99.90
2022-09-12T03:25:16.993Z,99.90
2022-09-12T03:28:40.659Z,99.90
2022-09-12T03:32:02.749Z,99.90
2022-09-12T03:35:25.495Z,99.90
2022-09-12T03:38:47.688Z,99.90
2022-09-12T03:42:09.756Z,99.90
2022-09-12T03:45:31.921Z,99.90
2022-09-12T03:48:53.909Z,99.90
2022-09-12T03:52:15.864Z,99.90
2022-09-12T03:55:39.452Z,99.90
2022-09-12T03:59:01.455Z,99.90
2022-09-12T04:02:23.435Z,99.90
2022-09-12T04:05:49.182Z,99.90
2022-09-12T04:09:12.833Z,99.90
2022-09-12T04:12:35.871Z,99.90
2022-09-12T04:15:59.678Z,99.90
2022-09-12T04:19:25.185Z,99.90
2022-09-12T04:22:47.113Z,99.90
2022-09-12T04:26:10.705Z,99.90
2022-09-12T04:29:36.060Z,99.90
2022-09-12T04:32:58.643Z,99.90
2022-09-12T04:36:21.406Z,99.90
2022-09-12T04:39:51.557Z,99.90
2022-09-12T04:43:14.715Z,99.90
2022-09-12T04:46:42.348Z,99.90
2022-09-12T04:50:06.924Z,99.90
2022-09-12T04:53:33.896Z,99.90
2022-09-12T04:57:00.442Z,99.90
2022-09-12T05:00:23.191Z,99.90
2022-09-12T05:03:47.171Z,99.90
2022-09-12T05:07:09.229Z,99.90
2022-09-12T05:10:31.548Z,99.90
2022-09-12T05:13:54.991Z,99.90
2022-09-12T05:17:17.347Z,99.90
2022-09-12T05:20:39.316Z,99.90
2022-09-12T05:24:01.790Z,99.90
2022-09-12T05:27:23.788Z,99.90
2022-09-12T05:30:45.979Z,99.90
2022-09-12T05:34:10.208Z,99.90
2022-09-12T05:37:33.466Z,99.90
2022-09-12T05:41:05.032Z,99.90
2022-09-12T05:44:27.024Z,99.90
2022-09-12T05:47:49.070Z,96.90
2022-09-12T05:51:19.228Z,94.00
2022-09-12T05:54:41.311Z,90.70
2022-09-12T05:58:03.343Z,87.00
2022-09-12T06:01:27.626Z,83.10
2022-09-12T06:04:50.181Z,79.60
2022-09-12T06:08:12.111Z,78.70
2022-09-12T06:11:37.349Z,75.00
2022-09-12T06:14:59.345Z,69.40
2022-09-12T06:18:21.312Z,69.70
2022-09-12T06:21:43.844Z,68.00
2022-09-12T06:25:06.246Z,68.40
2022-09-12T06:28:28.546Z,68.40
2022-09-12T06:31:50.529Z,66.40
2022-09-12T06:35:13.761Z,66.00
2022-09-12T06:38:35.995Z,63.00
2022-09-12T06:41:58.195Z,61.70
2022-09-12T06:45:29.018Z,58.60
2022-09-12T06:48:51.070Z,59.00
2022-09-12T06:52:13.049Z,58.30
2022-09-12T06:55:35.124Z,59.80
2022-09-12T06:58:59.114Z,56.80
2022-09-12T07:02:21.322Z,55.10
2022-09-12T07:05:43.853Z,55.70
2022-09-12T07:09:07.526Z,54.30
2022-09-12T07:12:30.341Z,54.40
2022-09-12T07:15:52.393Z,55.10
2022-09-12T07:19:14.862Z,53.30
2022-09-12T07:22:37.847Z,51.00
2022-09-12T07:26:00.915Z,49.50
2022-09-12T07:29:36.379Z,51.70
2022-09-12T07:32:59.478Z,52.70
2022-09-12T07:36:23.864Z,49.60
2022-09-12T07:39:45.884Z,51.50
2022-09-12T07:43:07.837Z,47.70
2022-09-12T07:46:31.325Z,53.40
2022-09-12T07:49:53.390Z,51.00
2022-09-12T07:53:16.551Z,52.70
2022-09-12T07:56:39.628Z,54.10
2022-09-12T08:00:02.047Z,50.30
2022-09-12T08:03:34.973Z,53.00
2022-09-12T08:07:03.031Z,51.80
2022-09-12T08:10:36.688Z,52.90
2022-09-12T08:14:30.125Z,52.70
2022-09-12T08:17:53.893Z,52.30
2022-09-12T08:21:18.924Z,52.60
2022-09-12T08:24:41.847Z,50.00
2022-09-12T08:28:04.214Z,52.90
2022-09-12T08:31:28.448Z,52.10
2022-09-12T08:34:55.653Z,51.90
2022-09-12T08:38:20.936Z,50.30
2022-09-12T08:41:56.117Z,55.20
2022-09-12T08:45:47.794Z,50.50
2022-09-12T08:49:22.047Z,49.60
2022-09-12T08:53:10.930Z,52.60
2022-09-12T08:56:37.434Z,54.40
2022-09-12T09:00:03.057Z,55.30
2022-09-12T09:04:18.167Z,53.10
2022-09-12T09:07:29.247Z,54.20
2022-09-12T09:11:03.286Z,55.10
2022-09-12T09:15:12.011Z,52.30
2022-09-12T09:18:46.246Z,54.20
2022-09-12T09:22:20.564Z,56.40
2022-09-12T09:26:03.142Z,55.80
2022-09-12T09:29:34.010Z,56.30
2022-09-12T09:33:00.985Z,56.60
2022-09-12T09:36:50.826Z,55.30
2022-09-12T09:40:27.358Z,51.80
2022-09-12T09:43:50.466Z,51.70
2022-09-12T09:47:12.868Z,55.50
2022-09-12T09:50:35.386Z,52.70
2022-09-12T09:54:14.729Z,52.00
2022-09-12T09:57:37.165Z,54.70
2022-09-12T10:01:01.876Z,55.40
2022-09-12T10:04:27.276Z,53.20
2022-09-12T10:07:53.939Z,55.00
2022-09-12T10:11:23.521Z,53.40
2022-09-12T10:15:01.456Z,54.00
2022-09-12T10:18:39.816Z,57.70
2022-09-12T10:22:04.353Z,54.70
2022-09-12T10:25:29.402Z,55.30
2022-09-12T10:28:55.497Z,55.40
2022-09-12T10:32:31.108Z,55.90
2022-09-12T10:35:55.196Z,54.90
2022-09-12T10:39:22.449Z,55.70
2022-09-12T10:42:53.185Z,54.90
2022-09-12T10:46:18.096Z,55.20
2022-09-12T10:49:40.679Z,58.80
2022-09-12T10:53:23.024Z,54.70
2022-09-12T10:56:50.805Z,51.10
2022-09-12T11:00:16.870Z,55.60
2022-09-12T11:04:10.624Z,53.00
2022-09-12T11:07:46.925Z,53.00
2022-09-12T11:11:11.741Z,54.00
2022-09-12T11:14:44.407Z,55.60
2022-09-12T11:18:14.950Z,53.80
2022-09-12T11:21:37.417Z,60.80
2022-09-12T11:25:24.849Z,58.60
2022-09-12T11:28:57.862Z,57.20
2022-09-12T11:32:41.600Z,58.80
2022-09-12T11:36:08.040Z,55.50
2022-09-12T11:39:41.357Z,55.60
2022-09-12T11:43:27.523Z,54.50
2022-09-12T11:46:54.736Z,61.70
2022-09-12T11:50:28.208Z,56.30
2022-09-12T11:54:40.697Z,58.50
2022-09-12T11:58:02.989Z,57.20
2022-09-12T12:01:41.319Z,59.80
2022-09-12T12:05:23.037Z,58.60
2022-09-12T12:08:46.933Z,64.70
2022-09-12T12:12:15.797Z,61.50
2022-09-12T12:15:39.564Z,60.00
2022-09-12T12:19:08.776Z,61.90
2022-09-12T12:22:32.646Z,59.80
2022-09-12T12:25:57.488Z,61.90
2022-09-12T12:29:22.128Z,62.50
2022-09-12T12:32:44.102Z,59.70
2022-09-12T12:36:09.711Z,59.10
2022-09-12T12:39:55.744Z,59.10
2022-09-12T12:43:32.207Z,56.40
2022-09-12T12:47:22.564Z,65.10
2022-09-12T12:50:46.164Z,58.90
2022-09-12T12:54:31.821Z,57.00
2022-09-12T12:57:59.248Z,54.80
2022-09-12T13:01:23.036Z,55.10
2022-09-12T13:04:45.637Z,55.10
2022-09-12T13:08:20.017Z,54.60
2022-09-12T13:11:42.168Z,54.70
2022-09-12T13:15:25.283Z,56.70
2022-09-12T13:18:49.960Z,55.20
2022-09-12T13:22:12.269Z,56.30
2022-09-12T13:25:36.139Z,59.70
2022-09-12T13:29:31.160Z,56.00
2022-09-12T13:32:53.989Z,60.90
2022-09-12T13:37:11.139Z,58.20
2022-09-12T13:41:06.469Z,57.50
2022-09-12T13:44:31.735Z,57.20
2022-09-12T13:47:58.903Z,56.00
2022-09-12T13:51:27.725Z,57.60
2022-09-12T13:54:56.464Z,56.50
2022-09-12T13:58:21.179Z,56.70
2022-09-12T14:01:46.196Z,56.00
2022-09-12T14:05:14.330Z,55.60
2022-09-12T14:08:41.327Z,57.00
2022-09-12T14:12:03.433Z,58.20
2022-09-12T14:15:29.979Z,57.10
2022-09-12T14:18:52.574Z,60.00
2022-09-12T14:22:18.133Z,58.10
2022-09-12T14:25:41.642Z,58.80
2022-09-12T14:29:07.348Z,56.90
2022-09-12T14:32:29.560Z,55.80
2022-09-12T14:36:07.104Z,56.00
2022-09-12T14:39:34.138Z,57.40
2022-09-12T14:42:59.303Z,59.10
2022-09-12T14:46:33.357Z,57.20
2022-09-12T14:49:55.384Z,60.50
2022-09-12T14:53:17.296Z,59.70
2022-09-12T14:57:14.321Z,57.60
2022-09-12T15:00:36.794Z,57.10
2022-09-12T15:03:58.834Z,61.70
2022-09-12T15:07:24.296Z,59.10
2022-09-12T15:10:46.648Z,58.60
2022-09-12T15:14:15.765Z,58.00
2022-09-12T15:17:37.852Z,59.50
2022-09-12T15:21:07.775Z,62.90
2022-09-12T15:24:29.681Z,62.10
2022-09-12T15:27:53.296Z,62.70
2022-09-12T15:31:29.669Z,64.10
2022-09-12T15:34:52.764Z,60.60
2022-09-12T15:38:15.133Z,66.00
2022-09-12T15:41:39.350Z,63.50
2022-09-12T15:45:02.712Z,63.40
2022-09-12T15:48:24.991Z,63.20
2022-09-12T15:51:46.913Z,64.90
2022-09-12T15:55:19.678Z,65.30
2022-09-12T15:58:55.011Z,65.70
2022-09-12T16:02:20.082Z,65.30
2022-09-12T16:05:42.197Z,67.20
2022-09-12T16:09:04.477Z,68.60
2022-09-12T16:12:26.427Z,66.40
2022-09-12T16:15:48.480Z,67.70
2022-09-12T16:19:11.909Z,68.50
2022-09-12T16:22:34.052Z,65.30
2022-09-12T16:26:00.449Z,66.90
2022-09-12T16:29:22.648Z,65.00
2022-09-12T16:32:44.763Z,65.00
2022-09-12T16:36:12.551Z,64.70
2022-09-12T16:39:34.726Z,64.80
2022-09-12T16:42:56.725Z,66.00
2022-09-12T16:46:20.886Z,65.90
2022-09-12T16:49:42.931Z,67.60
2022-09-12T16:53:04.956Z,68.80
2022-09-12T16:56:26.906Z,67.60
2022-09-12T16:59:49.429Z,70.00
2022-09-12T17:03:11.497Z,71.00
2022-09-12T17:06:34.128Z,71.60
2022-09-12T17:09:56.341Z,73.90
2022-09-12T17:13:18.319Z,70.60
2022-09-12T17:16:43.456Z,75.00
2022-09-12T17:20:06.534Z,75.60
2022-09-12T17:23:28.569Z,75.80
2022-09-12T17:26:51.733Z,75.80
2022-09-12T17:30:14.849Z,77.40
2022-09-12T17:33:37.459Z,78.20
2022-09-12T17:36:59.417Z,78.80
2022-09-12T17:40:32.672Z,81.30
2022-09-12T17:44:04.951Z,81.70
2022-09-12T17:47:27.063Z,81.60
2022-09-12T17:50:49.093Z,84.00
2022-09-12T17:54:16.155Z,83.60
2022-09-12T17:57:38.600Z,84.40
2022-09-12T18:01:23.634Z,85.70
2022-09-12T18:04:47.124Z,87.40
2022-09-12T18:08:09.072Z,87.00
2022-09-12T18:11:31.461Z,89.90
2022-09-12T18:14:53.460Z,90.10
2022-09-12T18:18:15.467Z,90.50
2022-09-12T18:21:37.764Z,90.50
2022-09-12T18:24:59.753Z,90.40
2022-09-12T18:28:21.708Z,91.10
2022-09-12T18:31:44.645Z,91.50
2022-09-12T18:35:07.570Z,91.50
2022-09-12T18:38:31.305Z,91.20
2022-09-12T18:41:53.317Z,91.50
2022-09-12T18:45:15.376Z,91.90
2022-09-12T18:48:37.685Z,91.60
2022-09-12T18:51:59.661Z,90.90
2022-09-12T18:55:23.497Z,90.90
2022-09-12T18:58:49.799Z,91.30
2022-09-12T19:02:16.295Z,91.30
2022-09-12T19:05:38.334Z,91.60
2022-09-12T19:09:06.657Z,91.50
2022-09-12T19:12:29.677Z,92.00
2022-09-12T19:15:52.960Z,92.50
2022-09-12T19:19:14.974Z,92.60
2022-09-12T19:22:37.029Z,92.80
2022-09-12T19:26:01.406Z,93.40
2022-09-12T19:29:23.395Z,93.00
2022-09-12T19:32:45.382Z,94.80
2022-09-12T19:36:22.214Z,95.10
2022-09-12T19:39:49.971Z,94.80
2022-09-12T19:43:11.999Z,96.20
2022-09-12T19:46:34.069Z,97.00
2022-09-12T19:49:56.008Z,95.90
2022-09-12T19:53:18.967Z,96.90
2022-09-12T19:56:40.999Z,96.40
2022-09-12T20:00:05.279Z,97.60
2022-09-12T20:03:28.046Z,98.50
2022-09-12T20:06:49.949Z,98.00
2022-09-12T20:10:12.046Z,97.50
2022-09-12T20:13:34.026Z,97.50
2022-09-12T20:16:55.983Z,98.70
2022-09-12T20:20:18.081Z,98.40
2022-09-12T20:23:41.421Z,99.70
2022-09-12T20:27:03.873Z,98.70
2022-09-12T20:30:25.870Z,97.70
2022-09-12T20:33:51.727Z,97.60
2022-09-12T20:37:14.426Z,98.40
2022-09-12T20:40:36.408Z,97.60
2022-09-12T20:43:58.954Z,99.30
2022-09-12T20:47:20.912Z,98.60
2022-09-12T20:50:42.854Z,98.30
2022-09-12T20:54:06.668Z,98.10
2022-09-12T20:57:28.781Z,98.30
2022-09-12T21:00:51.097Z,98.60
2022-09-12T21:04:15.163Z,99.30
2022-09-12T21:07:37.330Z,99.30
2022-09-12T21:10:59.440Z,99.20
2022-09-12T21:14:21.426Z,99.60
2022-09-12T21:17:43.350Z,99.30
2022-09-12T21:21:06.151Z,98.50
2022-09-12T21:24:28.142Z,99.20
2022-09-12T21:27:50.094Z,99.80
2022-09-12T21:31:12.211Z,98.60
2022-09-12T21:34:34.296Z,99.20
2022-09-12T21:37:56.338Z,99.80
2022-09-12T21:41:18.522Z,99.90
2022-09-12T21:44:40.480Z,99.90
2022-09-12T21:48:02.785Z,99.90
2022-09-12T21:51:24.806Z,99.90
2022-09-12T21:54:46.743Z,99.90
2022-09-12T21:58:08.749Z,99.90
2022-09-12T22:01:30.750Z,99.90
2022-09-12T22:04:52.772Z,99.90
2022-09-12T22:08:14.694Z,99.90
2022-09-12T22:11:36.678Z,99.90
2022-09-12T22:14:58.670Z,99.90
2022-09-12T22:18:20.635Z,99.90
2022-09-12T22:22:02.533Z,99.90
2022-09-12T22:25:24.667Z,99.90
2022-09-12T22:28:47.689Z,99.90
2022-09-12T22:32:09.774Z,99.90
2022-09-12T22:35:31.744Z,99.90
2022-09-12T22:38:53.712Z,99.90
2022-09-12T22:42:15.650Z,99.90
2022-09-12T22:45:41.049Z,99.90
2022-09-12T22:49:04.801Z,99.90
2022-09-12T22:52:26.918Z,99.90
2022-09-12T22:55:48.925Z,99.90
2022-09-12T22:59:11.381Z,99.90
2022-09-12T23:02:35.045Z,99.90
2022-09-12T23:05:57.474Z,99.90
2022-09-12T23:09:20.451Z,99.90
2022-09-12T23:12:42.828Z,99.90
2022-09-12T23:16:07.773Z,99.90
2022-09-12T23:19:30.494Z,99.90
2022-09-12T23:22:52.612Z,99.90
2022-09-12T23:26:23.233Z,99.90
2022-09-12T23:29:45.161Z,99.90
2022-09-12T23:33:07.233Z,99.90
2022-09-12T23:36:29.730Z,99.90
2022-09-12T23:39:51.675Z,99.90
2022-09-12T23:43:13.675Z,99.90
2022-09-12T23:46:35.630Z,99.90
2022-09-12T23:49:57.620Z,99.90
2022-09-12T23:53:20.440Z,99.90
2022-09-12T23:56:42.733Z,99.90
